createdAt,value
2017-12-13T00:00:40.905Z,42.98
2017-12-13T00:03:06.820Z,42.93
2017-12-13T00:05:32.603Z,42.89
2017-12-13T00:07:58.383Z,42.71
2017-12-13T00:10:24.159Z,43.49
2017-12-13T00:12:49.983Z,42.85
2017-12-13T00:15:15.760Z,43.70
2017-12-13T00:17:41.536Z,43.11
2017-12-13T00:20:07.312Z,42.81
2017-12-13T00:22:33.095Z,42.69
2017-12-13T00:24:58.921Z,42.78
2017-12-13T00:27:24.702Z,42.62
2017-12-13T00:29:50.540Z,42.86
2017-12-13T00:32:16.352Z,42.89
2017-12-13T00:34:42.127Z,43.17
2017-12-13T00:37:07.908Z,42.56
2017-12-13T00:39:33.696Z,42.47
2017-12-13T00:41:59.524Z,42.72
2017-12-13T00:44:27.272Z,42.47
2017-12-13T00:46:53.056Z,42.67
2017-12-13T00:49:18.844Z,42.94
2017-12-13T00:51:44.635Z,42.61
2017-12-13T00:54:10.457Z,42.49
2017-12-13T00:56:36.235Z,42.40
2017-12-13T00:59:02.048Z,42.58
2017-12-13T01:01:27.876Z,42.54
2017-12-13T01:03:53.656Z,43.20
2017-12-13T01:06:19.432Z,42.45
2017-12-13T01:08:45.263Z,42.17
2017-12-13T01:11:11.048Z,42.24
2017-12-13T01:13:36.867Z,42.16
2017-12-13T01:16:02.652Z,44.71
2017-12-13T01:18:28.432Z,44.40
2017-12-13T01:21:01.080Z,44.66
2017-12-13T01:23:26.860Z,44.17
2017-12-13T01:25:52.644Z,44.42
2017-12-13T01:28:18.424Z,42.81
2017-12-13T01:30:44.221Z,43.53
2017-12-13T01:33:10.008Z,44.66
2017-12-13T01:35:35.816Z,44.50
2017-12-13T01:38:01.597Z,43.99
2017-12-13T01:40:27.403Z,44.83
2017-12-13T01:42:53.197Z,43.21
2017-12-13T01:45:19.007Z,42.62
2017-12-13T01:47:44.779Z,42.17
2017-12-13T01:50:10.559Z,45.02
2017-12-13T01:52:36.347Z,45.54
2017-12-13T01:55:02.180Z,44.64
2017-12-13T01:57:27.956Z,43.03
2017-12-13T01:59:53.746Z,42.61
2017-12-13T02:02:19.528Z,42.35
2017-12-13T02:04:45.307Z,42.94
2017-12-13T02:07:11.092Z,43.23
2017-12-13T02:09:36.879Z,44.61
2017-12-13T02:12:02.664Z,45.51
2017-12-13T02:14:28.448Z,43.14
2017-12-13T02:16:54.244Z,42.71
2017-12-13T02:19:20.064Z,42.24
2017-12-13T02:21:45.841Z,44.91
2017-12-13T02:24:11.620Z,43.75
2017-12-13T02:26:37.403Z,43.46
2017-12-13T02:29:03.226Z,43.02
2017-12-13T02:31:29.008Z,44.69
2017-12-13T02:33:54.785Z,42.47
2017-12-13T02:36:20.559Z,42.22
2017-12-13T02:38:46.339Z,43.93
2017-12-13T02:41:12.135Z,45.13
2017-12-13T02:43:37.925Z,42.89
2017-12-13T02:46:03.708Z,42.71
2017-12-13T02:48:29.492Z,42.39
2017-12-13T02:50:55.266Z,42.57
2017-12-13T02:53:21.052Z,43.09
2017-12-13T02:55:46.854Z,42.55
2017-12-13T02:58:12.643Z,42.74
2017-12-13T03:00:38.451Z,43.06
2017-12-13T03:03:04.223Z,42.57
2017-12-13T03:05:29.999Z,42.28
2017-12-13T03:07:55.779Z,43.00
2017-12-13T03:10:21.558Z,44.28
2017-12-13T03:12:47.335Z,42.80
2017-12-13T03:15:13.121Z,42.94
2017-12-13T03:17:38.898Z,42.61
2017-12-13T03:20:05.525Z,42.41
2017-12-13T03:22:32.347Z,42.19
2017-12-13T03:24:58.140Z,42.21
2017-12-13T03:27:24.751Z,42.73
2017-12-13T03:29:50.602Z,43.37
2017-12-13T03:32:17.374Z,43.71
2017-12-13T03:34:44.077Z,44.73
2017-12-13T03:37:09.888Z,44.34
2017-12-13T03:39:36.543Z,43.63
2017-12-13T03:42:02.352Z,42.52
2017-12-13T03:44:28.984Z,43.94
2017-12-13T03:46:55.447Z,45.04
2017-12-13T03:49:21.235Z,45.22
2017-12-13T03:51:47.863Z,44.97
2017-12-13T03:54:14.627Z,43.01
2017-12-13T03:56:41.420Z,43.13
2017-12-13T03:59:08.176Z,42.31
2017-12-13T04:01:34.938Z,42.12
2017-12-13T04:04:00.715Z,43.75
2017-12-13T04:06:27.366Z,43.21
2017-12-13T04:08:53.185Z,44.41
2017-12-13T04:11:19.011Z,43.31
2017-12-13T04:13:44.811Z,42.25
2017-12-13T04:16:10.703Z,42.04
2017-12-13T04:18:36.523Z,42.17
2017-12-13T04:21:02.296Z,44.85
2017-12-13T04:23:28.116Z,42.80
2017-12-13T04:25:53.903Z,43.71
2017-12-13T04:28:19.698Z,42.12
2017-12-13T04:30:45.471Z,41.74
2017-12-13T04:33:12.240Z,42.18
2017-12-13T04:35:39.010Z,41.78
2017-12-13T04:38:05.342Z,42.58
2017-12-13T04:40:31.119Z,42.01
2017-12-13T04:42:57.847Z,42.17
2017-12-13T04:45:23.671Z,41.82
2017-12-13T04:47:50.427Z,41.69
2017-12-13T04:50:17.172Z,41.54
2017-12-13T04:52:43.971Z,41.52
2017-12-13T04:55:10.575Z,41.67
2017-12-13T04:57:36.348Z,41.77
2017-12-13T05:00:02.947Z,41.76
2017-12-13T05:02:28.726Z,41.44
2017-12-13T05:04:54.507Z,41.20
2017-12-13T05:07:20.289Z,41.21
2017-12-13T05:09:46.965Z,41.14
2017-12-13T05:12:12.743Z,41.83
2017-12-13T05:14:39.356Z,41.47
2017-12-13T05:17:06.107Z,41.32
2017-12-13T05:19:31.897Z,41.18
2017-12-13T05:21:58.698Z,41.21
2017-12-13T05:24:24.483Z,41.52
2017-12-13T05:26:50.262Z,41.32
2017-12-13T05:29:16.088Z,41.37
2017-12-13T05:31:42.839Z,41.16
2017-12-13T05:34:09.539Z,41.06
2017-12-13T05:36:36.208Z,41.01
2017-12-13T05:39:02.975Z,40.99
2017-12-13T05:41:28.759Z,42.25
2017-12-13T05:43:54.546Z,42.89
2017-12-13T05:46:20.344Z,41.96
2017-12-13T05:48:46.119Z,42.56
2017-12-13T05:51:11.896Z,45.00
2017-12-13T05:53:37.673Z,41.51
2017-12-13T05:56:04.342Z,42.53
2017-12-13T05:58:30.118Z,42.39
2017-12-13T06:00:55.907Z,43.16
2017-12-13T06:03:21.690Z,43.15
2017-12-13T06:05:47.469Z,42.22
2017-12-13T06:08:13.259Z,41.28
2017-12-13T06:10:39.080Z,41.04
2017-12-13T06:13:04.859Z,42.92
2017-12-13T06:15:30.652Z,41.16
2017-12-13T06:17:56.435Z,41.06
2017-12-13T06:20:23.201Z,40.62
2017-12-13T06:22:48.987Z,40.51
2017-12-13T06:25:15.523Z,40.27
2017-12-13T06:27:41.332Z,40.49
2017-12-13T06:30:07.102Z,40.23
2017-12-13T06:32:32.888Z,40.28
2017-12-13T06:34:58.680Z,40.29
2017-12-13T06:37:25.462Z,40.35
2017-12-13T06:39:51.248Z,40.39
2017-12-13T06:42:17.039Z,40.35
2017-12-13T06:44:42.859Z,40.41
2017-12-13T06:47:08.640Z,40.28
2017-12-13T06:49:34.445Z,40.33
2017-12-13T06:52:01.008Z,40.12
2017-12-13T06:54:26.815Z,40.11
2017-12-13T06:56:52.599Z,40.25
2017-12-13T06:59:18.411Z,40.16
2017-12-13T07:01:45.190Z,40.13
2017-12-13T07:04:11.018Z,40.13
2017-12-13T07:06:36.843Z,40.15
2017-12-13T07:09:03.602Z,40.31
2017-12-13T07:11:30.403Z,40.23
2017-12-13T07:13:56.209Z,40.36
2017-12-13T07:16:22.008Z,40.38
2017-12-13T07:18:48.588Z,40.51
2017-12-13T07:21:14.389Z,40.66
2017-12-13T07:23:40.187Z,40.47
2017-12-13T07:26:05.983Z,40.43
2017-12-13T07:28:31.784Z,44.42
2017-12-13T07:30:57.564Z,41.31
2017-12-13T07:33:23.365Z,41.00
2017-12-13T07:35:49.955Z,40.61
2017-12-13T07:38:16.743Z,40.66
2017-12-13T07:40:42.535Z,41.48
2017-12-13T07:43:08.328Z,42.29
2017-12-13T07:45:35.019Z,40.81
2017-12-13T07:48:01.916Z,40.66
2017-12-13T07:50:27.707Z,40.55
2017-12-13T07:52:54.363Z,40.68
2017-12-13T07:55:20.164Z,40.55
2017-12-13T07:57:46.946Z,40.76
2017-12-13T08:00:12.748Z,40.63
2017-12-13T08:02:38.773Z,40.71
2017-12-13T08:05:04.597Z,40.43
2017-12-13T08:07:31.308Z,40.53
2017-12-13T08:09:58.127Z,40.50
2017-12-13T08:12:24.848Z,40.64
2017-12-13T08:14:50.682Z,40.61
2017-12-13T08:17:16.467Z,40.52
2017-12-13T08:19:43.156Z,41.14
2017-12-13T08:22:08.954Z,40.76
2017-12-13T08:24:35.520Z,40.49
2017-12-13T08:27:02.376Z,40.39
2017-12-13T08:29:28.259Z,40.25
2017-12-13T08:31:54.080Z,40.26
2017-12-13T08:34:19.869Z,40.16
2017-12-13T08:36:45.683Z,40.43
2017-12-13T08:39:11.480Z,40.27
2017-12-13T08:41:37.317Z,40.31
2017-12-13T08:44:03.099Z,41.34
2017-12-13T08:46:29.872Z,41.52
2017-12-13T08:48:55.666Z,42.37
2017-12-13T08:51:21.508Z,42.13
2017-12-13T08:53:47.311Z,40.40
2017-12-13T08:56:13.892Z,40.07
2017-12-13T08:58:39.708Z,43.56
2017-12-13T09:01:05.501Z,40.43
2017-12-13T09:03:31.331Z,41.42
2017-12-13T09:05:57.926Z,40.58
2017-12-13T09:08:23.764Z,40.34
2017-12-13T09:10:49.579Z,40.28
2017-12-13T09:13:15.379Z,40.84
2017-12-13T09:15:41.183Z,40.46
2017-12-13T10:23:55.761Z,40.43
2017-12-13T10:31:49.453Z,40.39
2017-12-13T10:34:15.292Z,40.43
2017-12-13T10:36:41.139Z,40.52
2017-12-13T10:39:06.988Z,40.29
2017-12-13T10:41:32.887Z,40.09
2017-12-13T10:43:58.747Z,40.10
2017-12-13T10:46:24.597Z,40.42
2017-12-13T10:48:50.444Z,43.40
2017-12-13T10:51:16.285Z,42.95
2017-12-13T10:53:42.130Z,41.72
2017-12-13T10:56:08.040Z,41.82
2017-12-13T10:58:33.889Z,41.04
2017-12-13T11:00:59.739Z,40.85
2017-12-13T11:03:25.583Z,40.22
2017-12-13T11:05:51.421Z,40.96
2017-12-13T11:08:17.260Z,40.99
2017-12-13T11:10:43.089Z,41.05
2017-12-13T11:13:08.934Z,41.56
2017-12-13T11:15:34.782Z,41.63
2017-12-13T11:18:00.624Z,40.36
2017-12-13T11:20:26.501Z,40.17
2017-12-13T11:22:52.331Z,41.86
2017-12-13T11:25:18.185Z,42.03
2017-12-13T11:27:44.068Z,42.04
2017-12-13T11:30:09.899Z,40.68
2017-12-13T11:32:35.772Z,41.55
2017-12-13T11:35:01.650Z,40.46
2017-12-13T11:37:27.511Z,40.55
2017-12-13T11:39:53.360Z,41.35
2017-12-13T11:42:19.234Z,40.53
2017-12-13T11:44:45.083Z,40.72
2017-12-13T11:47:10.952Z,40.67
2017-12-13T11:49:36.832Z,40.53
2017-12-13T11:52:02.714Z,40.32
2017-12-13T11:54:34.603Z,40.37
2017-12-13T11:57:00.481Z,40.55
2017-12-13T11:59:26.327Z,40.29
2017-12-13T12:01:52.167Z,41.10
2017-12-13T12:04:18.042Z,41.68
2017-12-13T12:06:43.879Z,40.57
2017-12-13T12:09:09.699Z,40.23
2017-12-13T12:11:35.537Z,41.91
2017-12-13T12:14:01.367Z,41.19
2017-12-13T12:16:27.200Z,41.65
2017-12-13T12:18:53.044Z,40.61
2017-12-13T12:21:18.875Z,40.53
2017-12-13T12:23:45.055Z,40.97
2017-12-13T12:26:10.912Z,41.74
2017-12-13T12:28:36.736Z,41.18
2017-12-13T12:31:02.566Z,40.65
2017-12-13T12:33:28.394Z,39.77
2017-12-13T12:35:54.226Z,40.52
2017-12-13T12:38:20.059Z,39.77
2017-12-13T12:40:45.892Z,39.68
2017-12-13T12:43:11.725Z,39.84
2017-12-13T12:45:37.560Z,41.20
2017-12-13T12:48:03.416Z,42.40
2017-12-13T12:50:29.244Z,41.03
2017-12-13T12:52:55.118Z,40.57
2017-12-13T12:55:20.930Z,41.93
2017-12-13T12:57:46.787Z,41.25
2017-12-13T13:00:12.610Z,40.27
2017-12-13T13:02:38.459Z,41.50
2017-12-13T13:05:04.283Z,40.83
2017-12-13T13:07:30.273Z,40.42
2017-12-13T13:09:56.099Z,40.85
2017-12-13T13:12:25.829Z,40.72
2017-12-13T13:14:51.655Z,40.97
2017-12-13T13:17:17.599Z,40.86
2017-12-13T13:19:43.552Z,40.35
2017-12-13T13:22:09.387Z,40.30
2017-12-13T13:24:35.887Z,40.09
2017-12-13T13:27:01.787Z,39.93
2017-12-13T13:29:27.618Z,40.80
2017-12-13T13:31:53.526Z,40.57
2017-12-13T13:34:19.361Z,40.34
2017-12-13T13:36:45.190Z,40.21
2017-12-13T13:39:11.027Z,40.10
2017-12-13T13:41:37.428Z,40.07
2017-12-13T13:44:03.279Z,41.31
2017-12-13T13:46:29.102Z,40.58
2017-12-13T13:48:54.943Z,41.01
2017-12-13T13:51:20.806Z,40.41
2017-12-13T13:53:46.636Z,40.07
2017-12-13T13:56:12.473Z,40.06
2017-12-13T13:58:38.298Z,41.11
2017-12-13T14:01:04.128Z,40.31
2017-12-13T14:03:29.993Z,40.31
2017-12-13T14:05:55.827Z,40.21
2017-12-13T14:08:21.921Z,39.94
2017-12-13T14:10:47.786Z,39.96
2017-12-13T14:13:13.670Z,40.68
2017-12-13T14:15:39.499Z,40.05
2017-12-13T14:18:05.320Z,40.19
2017-12-13T14:20:31.141Z,40.04
2017-12-13T14:22:56.975Z,39.80
2017-12-13T14:25:22.792Z,40.39
2017-12-13T14:27:48.635Z,40.26
2017-12-13T14:30:14.467Z,39.92
2017-12-13T14:32:40.308Z,39.91
2017-12-13T14:35:06.141Z,39.93
2017-12-13T14:37:31.975Z,39.88
2017-12-13T14:39:57.824Z,39.91
2017-12-13T14:42:23.644Z,39.71
2017-12-13T14:44:49.466Z,39.77
2017-12-13T14:47:15.297Z,39.85
2017-12-13T14:49:41.134Z,42.81
2017-12-13T14:52:06.948Z,42.94
2017-12-13T14:54:33.655Z,40.81
2017-12-13T14:56:59.479Z,41.87
2017-12-13T14:59:25.360Z,41.07
2017-12-13T15:01:51.191Z,39.89
2017-12-13T15:04:17.195Z,40.17
2017-12-13T15:06:43.023Z,39.75
2017-12-13T15:09:08.878Z,39.82
2017-12-13T15:11:34.750Z,40.54
2017-12-13T15:14:00.575Z,40.07
2017-12-13T15:16:26.391Z,39.74
2017-12-13T15:18:52.256Z,40.05
2017-12-13T15:21:18.078Z,39.64
2017-12-13T15:23:43.913Z,39.65
2017-12-13T15:26:09.743Z,39.63
2017-12-13T15:28:35.566Z,39.81
2017-12-13T15:31:01.388Z,39.45
2017-12-13T15:33:27.238Z,39.62
2017-12-13T15:35:53.058Z,39.37
2017-12-13T15:38:18.877Z,40.44
2017-12-13T15:40:44.711Z,40.09
2017-12-13T15:43:10.565Z,39.58
2017-12-13T15:45:36.519Z,39.42
2017-12-13T15:48:02.348Z,39.25
2017-12-13T15:50:28.241Z,40.46
2017-12-13T15:52:54.075Z,39.58
2017-12-13T15:55:19.905Z,39.42
2017-12-13T15:57:45.783Z,39.25
2017-12-13T16:00:11.612Z,39.09
2017-12-13T16:02:37.492Z,39.18
2017-12-13T16:05:03.359Z,39.05
2017-12-13T16:07:29.181Z,38.85
2017-12-13T16:09:55.004Z,38.94
2017-12-13T16:12:20.897Z,38.98
2017-12-13T16:14:47.559Z,38.89
2017-12-13T16:17:13.411Z,38.78
2017-12-13T16:19:39.251Z,38.96
2017-12-13T16:22:05.090Z,38.63
2017-12-13T16:24:31.067Z,38.74
2017-12-13T16:26:56.910Z,39.88
2017-12-13T16:29:22.768Z,39.00
2017-12-13T16:31:48.605Z,38.90
2017-12-13T16:34:14.544Z,38.85
2017-12-13T16:36:41.462Z,39.03
2017-12-13T16:39:07.302Z,38.86
2017-12-13T16:41:33.167Z,39.25
2017-12-13T16:43:59.075Z,39.09
2017-12-13T16:46:24.920Z,38.98
2017-12-13T16:48:50.755Z,39.00
2017-12-13T16:51:16.622Z,39.00
2017-12-13T16:53:42.439Z,39.26
2017-12-13T16:56:08.315Z,39.35
2017-12-13T16:58:34.135Z,39.25
2017-12-13T17:00:59.958Z,39.21
2017-12-13T17:03:25.782Z,39.15
2017-12-13T17:05:51.883Z,39.18
2017-12-13T17:08:17.695Z,39.19
2017-12-13T17:10:43.544Z,39.06
2017-12-13T17:13:09.362Z,38.92
2017-12-13T17:15:35.175Z,39.10
2017-12-13T17:18:00.988Z,38.86
2017-12-13T17:20:26.815Z,38.87
2017-12-13T17:22:52.640Z,38.92
2017-12-13T17:25:18.452Z,39.01
2017-12-13T17:27:44.311Z,39.10
2017-12-13T17:30:10.273Z,38.93
2017-12-13T17:32:36.146Z,38.87
2017-12-13T17:35:02.027Z,38.91
2017-12-13T17:37:27.915Z,38.99
2017-12-13T17:39:53.735Z,38.99
2017-12-13T17:42:19.607Z,39.19
2017-12-13T17:44:45.464Z,38.97
2017-12-13T17:47:11.313Z,39.06
2017-12-13T17:49:37.127Z,38.79
2017-12-13T17:52:02.947Z,40.39
2017-12-13T17:54:28.770Z,40.62
2017-12-13T17:56:54.607Z,39.29
2017-12-13T17:59:20.438Z,39.29
2017-12-13T18:01:46.258Z,39.06
2017-12-13T18:04:12.080Z,39.02
2017-12-13T18:06:37.899Z,39.58
2017-12-13T18:09:03.746Z,39.55
2017-12-13T18:11:29.555Z,39.17
2017-12-13T18:13:55.377Z,39.48
2017-12-13T18:16:21.200Z,39.15
2017-12-13T18:18:47.073Z,39.41
2017-12-13T18:21:12.892Z,39.53
2017-12-13T18:23:38.730Z,39.52
2017-12-13T18:26:04.555Z,39.29
2017-12-13T18:28:31.153Z,39.55
2017-12-13T18:30:57.800Z,39.64
2017-12-13T18:33:24.099Z,39.71
2017-12-13T18:35:49.935Z,39.83
2017-12-13T18:38:15.970Z,39.58
2017-12-13T18:40:41.799Z,39.59
2017-12-13T18:43:07.693Z,39.68
2017-12-13T18:45:33.547Z,39.84
2017-12-13T18:47:59.411Z,39.81
2017-12-13T18:50:25.262Z,39.88
2017-12-13T18:52:51.126Z,39.99
2017-12-13T18:55:17.006Z,40.02
2017-12-13T18:57:42.822Z,40.25
2017-12-13T19:00:08.745Z,40.30
2017-12-13T19:02:34.583Z,40.70
2017-12-13T19:05:00.403Z,41.48
2017-12-13T19:07:26.225Z,40.54
2017-12-13T19:09:52.112Z,40.47
2017-12-13T19:12:17.951Z,40.62
2017-12-13T19:14:43.884Z,40.61
2017-12-13T19:17:09.746Z,40.56
2017-12-13T19:19:35.636Z,40.62
2017-12-13T19:22:01.527Z,40.65
2017-12-13T19:24:27.343Z,40.83
2017-12-13T19:26:53.167Z,40.86
2017-12-13T19:29:18.992Z,40.90
2017-12-13T19:31:44.847Z,40.62
2017-12-13T19:34:10.755Z,40.98
2017-12-13T19:36:36.578Z,41.23
2017-12-13T19:39:02.430Z,41.14
2017-12-13T19:41:28.262Z,41.20
2017-12-13T19:43:54.091Z,41.07
2017-12-13T19:46:19.971Z,41.16
2017-12-13T19:48:45.786Z,41.12
2017-12-13T19:51:11.657Z,41.48
2017-12-13T19:53:37.502Z,42.41
2017-12-13T19:56:03.328Z,42.26
2017-12-13T19:58:29.206Z,42.24
2017-12-13T20:00:55.042Z,41.54
2017-12-13T20:03:20.952Z,41.49
2017-12-13T20:05:46.786Z,41.26
2017-12-13T20:08:12.615Z,41.25
2017-12-13T20:10:38.456Z,41.44
2017-12-13T20:13:04.290Z,41.13
2017-12-13T20:15:30.111Z,41.46
2017-12-13T20:17:55.941Z,41.31
2017-12-13T20:20:21.774Z,41.50
2017-12-13T20:22:47.606Z,41.28
2017-12-13T20:25:13.505Z,41.34
2017-12-13T20:27:39.323Z,42.11
2017-12-13T20:30:05.151Z,41.78
2017-12-13T20:32:30.975Z,41.47
2017-12-13T20:34:57.295Z,41.62
2017-12-13T20:37:23.264Z,41.32
2017-12-13T20:39:49.133Z,41.61
2017-12-13T20:42:14.991Z,41.36
2017-12-13T20:44:40.812Z,41.48
2017-12-13T20:47:06.752Z,41.44
2017-12-13T20:49:32.619Z,41.85
2017-12-13T20:52:04.237Z,41.38
2017-12-13T20:54:33.215Z,41.55
2017-12-13T20:57:02.839Z,41.46
2017-12-13T20:59:31.179Z,41.58
2017-12-13T21:02:00.161Z,41.53
2017-12-13T21:04:27.405Z,41.37
2017-12-13T21:06:57.647Z,41.39
2017-12-13T21:09:24.668Z,41.40
2017-12-13T21:11:55.728Z,41.60
2017-12-13T21:14:23.728Z,41.68
2017-12-13T21:16:51.332Z,41.54
2017-12-13T21:19:17.883Z,41.47
2017-12-13T21:21:45.997Z,41.55
2017-12-13T21:24:15.221Z,41.40
2017-12-13T21:26:41.407Z,41.49
2017-12-13T21:29:09.876Z,41.43
2017-12-13T21:31:38.385Z,41.87
2017-12-13T21:34:05.381Z,42.17
2017-12-13T21:36:32.561Z,42.24
2017-12-13T21:39:01.142Z,41.81
2017-12-13T21:41:29.213Z,41.69
2017-12-13T21:43:57.408Z,41.70
2017-12-13T21:46:26.624Z,41.65
2017-12-13T21:48:54.654Z,41.82
2017-12-13T21:51:22.364Z,41.68
2017-12-13T21:53:53.521Z,41.43
2017-12-13T21:56:22.279Z,42.66
2017-12-13T21:58:48.924Z,41.90
2017-12-13T22:01:15.999Z,41.66
2017-12-13T22:03:43.237Z,42.11
2017-12-13T22:06:10.452Z,41.63
2017-12-13T22:08:38.453Z,42.11
2017-12-13T22:11:05.327Z,41.49
2017-12-13T22:13:31.998Z,42.38
2017-12-13T22:15:58.625Z,42.15
2017-12-13T22:18:27.250Z,41.73
2017-12-13T22:20:54.125Z,42.19
2017-12-13T22:23:21.578Z,41.47
2017-12-13T22:25:49.051Z,41.41
2017-12-13T22:28:17.374Z,42.14
2017-12-13T22:30:44.391Z,41.87
2017-12-13T22:33:10.334Z,41.60
2017-12-13T22:35:36.162Z,41.52
2017-12-13T22:38:01.995Z,41.64
2017-12-13T22:40:27.826Z,41.58
2017-12-13T22:42:53.647Z,41.66
2017-12-13T22:45:19.563Z,41.38
2017-12-13T22:47:45.388Z,41.96
2017-12-13T22:50:11.215Z,41.54
2017-12-13T22:52:37.052Z,41.79
2017-12-13T22:55:04.171Z,41.35
2017-12-13T22:57:29.990Z,41.50
2017-12-13T22:59:55.916Z,41.38
2017-12-13T23:02:21.747Z,41.43
2017-12-13T23:04:47.612Z,41.35
2017-12-13T23:07:13.447Z,41.50
2017-12-13T23:09:39.313Z,41.38
2017-12-13T23:12:05.147Z,41.46
2017-12-13T23:14:30.974Z,41.25
2017-12-13T23:16:56.816Z,41.35
2017-12-13T23:19:22.656Z,41.57
2017-12-13T23:21:48.528Z,41.36
2017-12-13T23:24:14.353Z,41.19
2017-12-13T23:26:40.177Z,41.35
2017-12-13T23:29:06.012Z,41.39
2017-12-13T23:31:31.877Z,41.35
2017-12-13T23:33:58.577Z,41.28
2017-12-13T23:36:24.440Z,41.31
2017-12-13T23:38:50.296Z,41.40
2017-12-13T23:41:16.124Z,41.28
2017-12-13T23:43:41.965Z,41.17
2017-12-13T23:46:07.802Z,41.21
2017-12-13T23:48:33.640Z,41.36
2017-12-13T23:50:59.601Z,41.20
2017-12-13T23:53:25.491Z,41.27
2017-12-13T23:55:51.436Z,41.13
2017-12-13T23:58:17.275Z,41.16
